sensor_id;sensor_type;location;lat;lon;timestamp;pressure;altitude;pressure_sealevel;temperature;humidity
76730;BME280;65653;53.106;18.046;2024-02-21T00:02:22;101272.36;;;4.84;100.00
76730;BME280;65653;53.106;18.046;2024-02-21T00:04:49;101272.28;;;4.84;100.00
76730;BME280;65653;53.106;18.046;2024-02-21T00:07:16;101275.32;;;4.86;100.00
76730;BME280;65653;53.106;18.046;2024-02-21T00:09:42;101269.46;;;4.85;100.00
76730;BME280;65653;53.106;18.046;2024-02-21T00:12:09;101268.18;;;4.86;100.00
76730;BME280;65653;53.106;18.046;2024-02-21T00:14:36;101270.70;;;4.86;100.00
76730;BME280;65653;53.106;18.046;2024-02-21T00:17:02;101267.84;;;4.87;100.00
76730;BME280;65653;53.106;18.046;2024-02-21T00:19:29;101265.85;;;4.89;100.00
76730;BME280;65653;53.106;18.046;2024-02-21T00:21:56;101260.90;;;4.89;100.00
76730;BME280;65653;53.106;18.046;2024-02-21T00:24:22;101256.63;;;4.89;100.00
76730;BME280;65653;53.106;18.046;2024-02-21T00:26:49;101256.70;;;4.90;100.00
76730;BME280;65653;53.106;18.046;2024-02-21T00:29:15;101257.27;;;4.92;100.00
76730;BME280;65653;53.106;18.046;2024-02-21T00:31:41;101256.17;;;4.92;100.00
76730;BME280;65653;53.106;18.046;2024-02-21T00:34:08;101253.98;;;4.92;100.00
76730;BME280;65653;53.106;18.046;2024-02-21T00:36:34;101249.02;;;4.92;100.00
76730;BME280;65653;53.106;18.046;2024-02-21T00:39:01;101243.89;;;4.92;100.00
76730;BME280;65653;53.106;18.046;2024-02-21T00:41:27;101247.06;;;4.91;100.00
76730;BME280;65653;53.106;18.046;2024-02-21T00:43:54;101244.64;;;4.90;100.00
76730;BME280;65653;53.106;18.046;2024-02-21T00:46:20;101240.90;;;4.89;100.00
76730;BME280;65653;53.106;18.046;2024-02-21T00:48:46;101238.42;;;4.88;100.00
76730;BME280;65653;53.106;18.046;2024-02-21T00:51:13;101244.73;;;4.87;100.00
76730;BME280;65653;53.106;18.046;2024-02-21T00:53:40;101242.19;;;4.87;100.00
76730;BME280;65653;53.106;18.046;2024-02-21T00:56:06;101237.42;;;4.87;100.00
76730;BME280;65653;53.106;18.046;2024-02-21T00:58:33;101233.79;;;4.87;100.00
76730;BME280;65653;53.106;18.046;2024-02-21T01:01:00;101234.30;;;4.88;100.00
76730;BME280;65653;53.106;18.046;2024-02-21T01:03:27;101226.77;;;4.88;100.00
76730;BME280;65653;53.106;18.046;2024-02-21T01:05:54;101225.45;;;4.88;100.00
76730;BME280;65653;53.106;18.046;2024-02-21T01:08:20;101220.99;;;4.89;100.00
76730;BME280;65653;53.106;18.046;2024-02-21T01:10:47;101216.55;;;4.89;100.00
76730;BME280;65653;53.106;18.046;2024-02-21T01:13:13;101217.08;;;4.91;100.00
76730;BME280;65653;53.106;18.046;2024-02-21T01:15:40;101217.77;;;4.91;100.00
76730;BME280;65653;53.106;18.046;2024-02-21T01:18:07;101210.15;;;4.91;100.00
76730;BME280;65653;53.106;18.046;2024-02-21T01:20:33;101205.69;;;4.90;100.00
76730;BME280;65653;53.106;18.046;2024-02-21T01:23:00;101204.59;;;4.90;100.00
76730;BME280;65653;53.106;18.046;2024-02-21T01:25:27;101202.75;;;4.90;100.00
76730;BME280;65653;53.106;18.046;2024-02-21T01:27:54;101198.75;;;4.90;100.00
76730;BME280;65653;53.106;18.046;2024-02-21T01:30:20;101193.90;;;4.89;100.00
76730;BME280;65653;53.106;18.046;2024-02-21T01:32:47;101193.47;;;4.88;100.00
76730;BME280;65653;53.106;18.046;2024-02-21T01:35:13;101191.89;;;4.85;100.00
76730;BME280;65653;53.106;18.046;2024-02-21T01:37:39;101189.83;;;4.83;100.00
76730;BME280;65653;53.106;18.046;2024-02-21T01:40:07;101184.79;;;4.80;100.00
76730;BME280;65653;53.106;18.046;2024-02-21T01:42:38;101187.63;;;4.81;100.00
76730;BME280;65653;53.106;18.046;2024-02-21T01:45:05;101186.13;;;4.81;100.00
76730;BME280;65653;53.106;18.046;2024-02-21T01:47:31;101182.52;;;4.81;100.00
76730;BME280;65653;53.106;18.046;2024-02-21T01:49:58;101178.48;;;4.79;100.00
76730;BME280;65653;53.106;18.046;2024-02-21T01:52:24;101179.73;;;4.79;100.00
76730;BME280;65653;53.106;18.046;2024-02-21T01:54:51;101182.04;;;4.80;100.00
76730;BME280;65653;53.106;18.046;2024-02-21T01:57:18;101176.44;;;4.81;100.00
76730;BME280;65653;53.106;18.046;2024-02-21T01:59:44;101176.38;;;4.83;100.00
76730;BME280;65653;53.106;18.046;2024-02-21T02:02:11;101175.11;;;4.83;100.00
76730;BME280;65653;53.106;18.046;2024-02-21T02:04:38;101170.22;;;4.84;100.00
76730;BME280;65653;53.106;18.046;2024-02-21T02:07:06;101170.89;;;4.85;100.00
76730;BME280;65653;53.106;18.046;2024-02-21T02:09:34;101170.26;;;4.87;100.00
76730;BME280;65653;53.106;18.046;2024-02-21T02:12:01;101168.73;;;4.90;100.00
76730;BME280;65653;53.106;18.046;2024-02-21T02:14:28;101164.23;;;4.91;100.00
76730;BME280;65653;53.106;18.046;2024-02-21T02:16:54;101166.41;;;4.91;100.00
76730;BME280;65653;53.106;18.046;2024-02-21T02:19:21;101164.35;;;4.91;100.00
76730;BME280;65653;53.106;18.046;2024-02-21T02:21:51;101162.41;;;4.93;100.00
76730;BME280;65653;53.106;18.046;2024-02-21T02:24:24;101159.91;;;4.94;100.00
76730;BME280;65653;53.106;18.046;2024-02-21T02:26:52;101154.23;;;4.94;100.00
76730;BME280;65653;53.106;18.046;2024-02-21T02:29:19;101152.14;;;4.95;100.00
76730;BME280;65653;53.106;18.046;2024-02-21T02:31:45;101152.48;;;4.95;100.00
76730;BME280;65653;53.106;18.046;2024-02-21T02:34:12;101148.84;;;4.94;100.00
76730;BME280;65653;53.106;18.046;2024-02-21T02:36:38;101151.77;;;4.95;100.00
76730;BME280;65653;53.106;18.046;2024-02-21T02:39:05;101146.16;;;4.94;100.00
76730;BME280;65653;53.106;18.046;2024-02-21T02:41:35;101142.38;;;4.93;100.00
76730;BME280;65653;53.106;18.046;2024-02-21T02:44:01;101142.75;;;4.93;100.00
76730;BME280;65653;53.106;18.046;2024-02-21T02:46:28;101142.51;;;4.92;100.00
76730;BME280;65653;53.106;18.046;2024-02-21T02:48:55;101138.46;;;4.92;100.00
76730;BME280;65653;53.106;18.046;2024-02-21T02:51:21;101135.48;;;4.91;100.00
76730;BME280;65653;53.106;18.046;2024-02-21T02:53:48;101128.63;;;4.90;100.00
76730;BME280;65653;53.106;18.046;2024-02-21T02:56:17;101125.17;;;4.90;100.00
76730;BME280;65653;53.106;18.046;2024-02-21T02:58:44;101122.34;;;4.89;100.00
76730;BME280;65653;53.106;18.046;2024-02-21T03:01:10;101121.94;;;4.89;100.00
76730;BME280;65653;53.106;18.046;2024-02-21T03:03:37;101118.84;;;4.89;100.00
76730;BME280;65653;53.106;18.046;2024-02-21T03:06:04;101114.80;;;4.90;100.00
76730;BME280;65653;53.106;18.046;2024-02-21T03:08:31;101116.66;;;4.91;100.00
76730;BME280;65653;53.106;18.046;2024-02-21T03:10:58;101114.77;;;4.91;100.00
76730;BME280;65653;53.106;18.046;2024-02-21T03:13:26;101114.98;;;4.91;100.00
76730;BME280;65653;53.106;18.046;2024-02-21T03:15:52;101108.56;;;4.91;100.00
76730;BME280;65653;53.106;18.046;2024-02-21T03:18:19;101111.11;;;4.91;100.00
76730;BME280;65653;53.106;18.046;2024-02-21T03:20:45;101107.81;;;4.91;100.00
76730;BME280;65653;53.106;18.046;2024-02-21T03:23:12;101103.91;;;4.92;100.00
76730;BME280;65653;53.106;18.046;2024-02-21T03:25:38;101107.70;;;4.93;100.00
76730;BME280;65653;53.106;18.046;2024-02-21T03:28:05;101106.77;;;4.93;100.00
76730;BME280;65653;53.106;18.046;2024-02-21T03:30:32;101102.63;;;4.94;100.00
76730;BME280;65653;53.106;18.046;2024-02-21T03:33:00;101102.73;;;4.94;100.00
76730;BME280;65653;53.106;18.046;2024-02-21T03:35:27;101100.17;;;4.96;100.00
76730;BME280;65653;53.106;18.046;2024-02-21T03:37:54;101099.86;;;4.97;100.00
76730;BME280;65653;53.106;18.046;2024-02-21T03:40:20;101094.77;;;4.99;100.00
76730;BME280;65653;53.106;18.046;2024-02-21T03:42:47;101094.46;;;5.00;100.00
76730;BME280;65653;53.106;18.046;2024-02-21T03:45:13;101088.05;;;5.02;100.00
76730;BME280;65653;53.106;18.046;2024-02-21T03:47:40;101088.51;;;5.02;100.00
76730;BME280;65653;53.106;18.046;2024-02-21T03:50:07;101082.42;;;5.03;100.00
76730;BME280;65653;53.106;18.046;2024-02-21T03:52:34;101087.13;;;5.06;100.00
76730;BME280;65653;53.106;18.046;2024-02-21T03:55:00;101083.60;;;5.06;100.00
76730;BME280;65653;53.106;18.046;2024-02-21T03:57:27;101080.79;;;5.07;100.00
76730;BME280;65653;53.106;18.046;2024-02-21T03:59:53;101077.80;;;5.07;100.00
76730;BME280;65653;53.106;18.046;2024-02-21T04:02:20;101078.30;;;5.08;100.00
76730;BME280;65653;53.106;18.046;2024-02-21T04:04:46;101079.16;;;5.09;100.00
76730;BME280;65653;53.106;18.046;2024-02-21T04:07:14;101077.52;;;5.08;100.00
76730;BME280;65653;53.106;18.046;2024-02-21T04:09:41;101076.45;;;5.08;100.00
76730;BME280;65653;53.106;18.046;2024-02-21T04:12:08;101074.02;;;5.09;100.00
76730;BME280;65653;53.106;18.046;2024-02-21T04:14:35;101068.00;;;5.08;100.00
76730;BME280;65653;53.106;18.046;2024-02-21T04:17:02;101065.84;;;5.08;100.00
76730;BME280;65653;53.106;18.046;2024-02-21T04:19:29;101065.91;;;5.09;100.00
76730;BME280;65653;53.106;18.046;2024-02-21T04:21:57;101059.40;;;5.09;100.00
76730;BME280;65653;53.106;18.046;2024-02-21T04:24:23;101063.79;;;5.08;100.00
76730;BME280;65653;53.106;18.046;2024-02-21T04:26:50;101059.23;;;5.09;100.00
76730;BME280;65653;53.106;18.046;2024-02-21T04:29:17;101057.23;;;5.08;100.00
76730;BME280;65653;53.106;18.046;2024-02-21T04:31:43;101052.14;;;5.08;100.00
76730;BME280;65653;53.106;18.046;2024-02-21T04:34:11;101046.50;;;5.07;100.00
76730;BME280;65653;53.106;18.046;2024-02-21T04:36:37;101046.10;;;5.06;100.00
76730;BME280;65653;53.106;18.046;2024-02-21T04:39:04;101042.66;;;5.06;100.00
76730;BME280;65653;53.106;18.046;2024-02-21T04:41:30;101042.34;;;5.05;100.00
76730;BME280;65653;53.106;18.046;2024-02-21T04:43:57;101040.31;;;5.05;100.00
76730;BME280;65653;53.106;18.046;2024-02-21T04:46:23;101042.36;;;5.04;100.00
76730;BME280;65653;53.106;18.046;2024-02-21T04:48:50;101039.42;;;5.05;100.00
76730;BME280;65653;53.106;18.046;2024-02-21T04:51:17;101031.73;;;5.05;100.00
76730;BME280;65653;53.106;18.046;2024-02-21T04:53:43;101034.84;;;5.05;100.00
76730;BME280;65653;53.106;18.046;2024-02-21T04:56:10;101027.31;;;5.05;100.00
76730;BME280;65653;53.106;18.046;2024-02-21T04:58:38;101024.20;;;5.05;100.00
76730;BME280;65653;53.106;18.046;2024-02-21T05:01:05;101018.46;;;5.06;100.00
76730;BME280;65653;53.106;18.046;2024-02-21T05:03:32;101017.94;;;5.06;100.00
76730;BME280;65653;53.106;18.046;2024-02-21T05:05:59;101018.77;;;5.07;100.00
76730;BME280;65653;53.106;18.046;2024-02-21T05:08:26;101014.05;;;5.06;100.00
76730;BME280;65653;53.106;18.046;2024-02-21T05:10:53;101016.14;;;5.07;100.00
76730;BME280;65653;53.106;18.046;2024-02-21T05:13:20;101009.08;;;5.07;100.00
76730;BME280;65653;53.106;18.046;2024-02-21T05:15:47;101008.80;;;5.08;100.00
76730;BME280;65653;53.106;18.046;2024-02-21T05:18:14;101006.60;;;5.08;100.00
76730;BME280;65653;53.106;18.046;2024-02-21T05:20:41;100998.14;;;5.08;100.00
76730;BME280;65653;53.106;18.046;2024-02-21T05:23:07;100997.02;;;5.08;100.00
76730;BME280;65653;53.106;18.046;2024-02-21T05:25:34;100996.29;;;5.08;100.00
76730;BME280;65653;53.106;18.046;2024-02-21T05:28:00;100988.05;;;5.08;100.00
76730;BME280;65653;53.106;18.046;2024-02-21T05:30:29;100989.85;;;5.08;100.00
76730;BME280;65653;53.106;18.046;2024-02-21T05:32:56;100982.66;;;5.09;100.00
76730;BME280;65653;53.106;18.046;2024-02-21T05:35:29;100979.75;;;5.09;100.00
76730;BME280;65653;53.106;18.046;2024-02-21T05:37:55;100982.48;;;5.09;100.00
76730;BME280;65653;53.106;18.046;2024-02-21T05:40:22;100981.09;;;5.08;100.00
76730;BME280;65653;53.106;18.046;2024-02-21T05:42:49;100985.23;;;5.09;100.00
76730;BME280;65653;53.106;18.046;2024-02-21T05:45:18;100984.31;;;5.09;100.00
76730;BME280;65653;53.106;18.046;2024-02-21T05:47:45;100980.34;;;5.08;100.00
76730;BME280;65653;53.106;18.046;2024-02-21T05:50:12;100978.85;;;5.08;100.00
76730;BME280;65653;53.106;18.046;2024-02-21T05:52:38;100971.86;;;5.09;100.00
76730;BME280;65653;53.106;18.046;2024-02-21T05:55:07;100971.69;;;5.09;100.00
76730;BME280;65653;53.106;18.046;2024-02-21T05:57:35;100972.70;;;5.09;100.00
76730;BME280;65653;53.106;18.046;2024-02-21T06:00:05;100971.86;;;5.10;100.00
76730;BME280;65653;53.106;18.046;2024-02-21T06:02:33;100966.02;;;5.10;100.00
76730;BME280;65653;53.106;18.046;2024-02-21T06:04:59;100963.51;;;5.11;100.00
76730;BME280;65653;53.106;18.046;2024-02-21T06:07:26;100956.88;;;5.12;100.00
76730;BME280;65653;53.106;18.046;2024-02-21T06:09:52;100961.95;;;5.13;100.00
76730;BME280;65653;53.106;18.046;2024-02-21T06:12:18;100960.55;;;5.13;100.00
76730;BME280;65653;53.106;18.046;2024-02-21T06:14:45;100957.30;;;5.13;100.00
76730;BME280;65653;53.106;18.046;2024-02-21T06:17:11;100957.91;;;5.14;100.00
76730;BME280;65653;53.106;18.046;2024-02-21T06:19:40;100955.27;;;5.15;100.00
76730;BME280;65653;53.106;18.046;2024-02-21T06:22:07;100956.07;;;5.16;100.00
76730;BME280;65653;53.106;18.046;2024-02-21T06:24:35;100955.86;;;5.16;100.00
76730;BME280;65653;53.106;18.046;2024-02-21T06:27:05;100956.24;;;5.18;100.00
76730;BME280;65653;53.106;18.046;2024-02-21T06:29:32;100950.83;;;5.19;100.00
76730;BME280;65653;53.106;18.046;2024-02-21T06:31:59;100951.01;;;5.21;100.00
76730;BME280;65653;53.106;18.046;2024-02-21T06:34:26;100947.06;;;5.21;100.00
76730;BME280;65653;53.106;18.046;2024-02-21T06:36:52;100941.86;;;5.22;100.00
76730;BME280;65653;53.106;18.046;2024-02-21T06:39:19;100943.94;;;5.23;100.00
76730;BME280;65653;53.106;18.046;2024-02-21T06:41:46;100946.36;;;5.24;100.00
76730;BME280;65653;53.106;18.046;2024-02-21T06:44:14;100940.63;;;5.25;100.00
76730;BME280;65653;53.106;18.046;2024-02-21T06:46:41;100935.34;;;5.26;100.00
76730;BME280;65653;53.106;18.046;2024-02-21T06:49:07;100932.20;;;5.28;100.00
76730;BME280;65653;53.106;18.046;2024-02-21T06:51:34;100932.83;;;5.31;100.00
76730;BME280;65653;53.106;18.046;2024-02-21T06:54:01;100931.02;;;5.32;100.00
76730;BME280;65653;53.106;18.046;2024-02-21T06:56:27;100931.23;;;5.34;100.00
76730;BME280;65653;53.106;18.046;2024-02-21T06:58:55;100932.60;;;5.35;100.00
76730;BME280;65653;53.106;18.046;2024-02-21T07:01:23;100932.49;;;5.35;100.00
76730;BME280;65653;53.106;18.046;2024-02-21T07:03:49;100930.31;;;5.37;100.00
76730;BME280;65653;53.106;18.046;2024-02-21T07:06:16;100927.67;;;5.39;100.00
76730;BME280;65653;53.106;18.046;2024-02-21T07:08:42;100920.55;;;5.41;100.00
76730;BME280;65653;53.106;18.046;2024-02-21T07:11:09;100922.61;;;5.44;100.00
76730;BME280;65653;53.106;18.046;2024-02-21T07:13:35;100918.22;;;5.45;100.00
76730;BME280;65653;53.106;18.046;2024-02-21T07:16:02;100911.39;;;5.49;100.00
76730;BME280;65653;53.106;18.046;2024-02-21T07:18:28;100908.11;;;5.54;100.00
76730;BME280;65653;53.106;18.046;2024-02-21T07:20:55;100901.34;;;5.59;100.00
76730;BME280;65653;53.106;18.046;2024-02-21T07:23:21;100901.82;;;5.66;100.00
76730;BME280;65653;53.106;18.046;2024-02-21T07:25:48;100897.42;;;5.72;100.00
76730;BME280;65653;53.106;18.046;2024-02-21T07:28:14;100892.45;;;5.76;100.00
76730;BME280;65653;53.106;18.046;2024-02-21T07:30:43;100892.52;;;5.79;100.00
76730;BME280;65653;53.106;18.046;2024-02-21T07:33:09;100896.34;;;5.79;100.00
76730;BME280;65653;53.106;18.046;2024-02-21T07:35:36;100893.91;;;5.76;100.00
76730;BME280;65653;53.106;18.046;2024-02-21T07:38:07;100894.92;;;5.75;100.00
76730;BME280;65653;53.106;18.046;2024-02-21T07:40:39;100894.79;;;5.73;100.00
76730;BME280;65653;53.106;18.046;2024-02-21T07:43:05;100888.23;;;5.73;100.00
76730;BME280;65653;53.106;18.046;2024-02-21T07:45:32;100884.24;;;5.76;100.00
76730;BME280;65653;53.106;18.046;2024-02-21T07:47:58;100886.48;;;5.81;100.00
76730;BME280;65653;53.106;18.046;2024-02-21T07:50:25;100883.31;;;5.91;100.00
76730;BME280;65653;53.106;18.046;2024-02-21T07:52:51;100879.27;;;6.02;100.00
76730;BME280;65653;53.106;18.046;2024-02-21T07:55:18;100882.79;;;6.08;100.00
76730;BME280;65653;53.106;18.046;2024-02-21T07:57:44;100881.58;;;6.01;100.00
76730;BME280;65653;53.106;18.046;2024-02-21T08:00:11;100877.93;;;5.90;100.00
76730;BME280;65653;53.106;18.046;2024-02-21T08:02:43;100880.67;;;5.85;100.00
76730;BME280;65653;53.106;18.046;2024-02-21T08:05:10;100875.61;;;5.84;100.00
76730;BME280;65653;53.106;18.046;2024-02-21T08:07:38;100872.17;;;5.84;100.00
76730;BME280;65653;53.106;18.046;2024-02-21T08:10:05;100859.23;;;5.83;100.00
76730;BME280;65653;53.106;18.046;2024-02-21T08:12:34;100857.80;;;5.85;100.00
76730;BME280;65653;53.106;18.046;2024-02-21T08:15:02;100858.05;;;5.86;100.00
76730;BME280;65653;53.106;18.046;2024-02-21T08:17:34;100849.20;;;5.86;100.00
76730;BME280;65653;53.106;18.046;2024-02-21T08:20:00;100851.99;;;5.88;100.00
76730;BME280;65653;53.106;18.046;2024-02-21T08:22:27;100849.81;;;5.89;100.00
76730;BME280;65653;53.106;18.046;2024-02-21T08:24:53;100850.89;;;5.91;100.00
76730;BME280;65653;53.106;18.046;2024-02-21T08:27:20;100852.44;;;5.92;100.00
76730;BME280;65653;53.106;18.046;2024-02-21T08:29:47;100851.34;;;5.92;100.00
76730;BME280;65653;53.106;18.046;2024-02-21T08:32:13;100844.98;;;5.94;100.00
76730;BME280;65653;53.106;18.046;2024-02-21T08:34:39;100835.08;;;5.98;100.00
76730;BME280;65653;53.106;18.046;2024-02-21T08:37:06;100837.80;;;6.01;100.00
76730;BME280;65653;53.106;18.046;2024-02-21T08:39:33;100838.86;;;6.00;100.00
76730;BME280;65653;53.106;18.046;2024-02-21T08:42:00;100846.05;;;5.96;100.00
76730;BME280;65653;53.106;18.046;2024-02-21T08:44:28;100852.23;;;5.95;100.00
76730;BME280;65653;53.106;18.046;2024-02-21T08:46:54;100853.09;;;5.92;100.00
76730;BME280;65653;53.106;18.046;2024-02-21T08:49:21;100849.52;;;5.88;100.00
76730;BME280;65653;53.106;18.046;2024-02-21T08:51:47;100843.94;;;5.86;100.00
76730;BME280;65653;53.106;18.046;2024-02-21T08:54:14;100839.80;;;5.83;100.00
76730;BME280;65653;53.106;18.046;2024-02-21T08:56:41;100838.61;;;5.81;100.00
76730;BME280;65653;53.106;18.046;2024-02-21T08:59:08;100837.84;;;5.81;100.00
76730;BME280;65653;53.106;18.046;2024-02-21T09:01:34;100833.76;;;5.84;100.00
76730;BME280;65653;53.106;18.046;2024-02-21T09:04:01;100832.64;;;5.87;100.00
76730;BME280;65653;53.106;18.046;2024-02-21T09:06:29;100828.27;;;5.91;100.00
76730;BME280;65653;53.106;18.046;2024-02-21T09:08:57;100830.61;;;5.97;100.00
76730;BME280;65653;53.106;18.046;2024-02-21T09:11:24;100825.98;;;6.02;100.00
76730;BME280;65653;53.106;18.046;2024-02-21T09:13:51;100823.23;;;6.07;100.00
76730;BME280;65653;53.106;18.046;2024-02-21T09:16:17;100826.17;;;6.08;100.00
76730;BME280;65653;53.106;18.046;2024-02-21T09:18:44;100817.45;;;6.09;100.00
76730;BME280;65653;53.106;18.046;2024-02-21T09:21:11;100815.71;;;6.14;100.00
76730;BME280;65653;53.106;18.046;2024-02-21T09:23:37;100812.77;;;6.15;100.00
76730;BME280;65653;53.106;18.046;2024-02-21T09:26:04;100803.96;;;6.13;100.00
76730;BME280;65653;53.106;18.046;2024-02-21T09:28:30;100807.74;;;6.12;100.00
76730;BME280;65653;53.106;18.046;2024-02-21T09:30:57;100810.98;;;6.11;100.00
76730;BME280;65653;53.106;18.046;2024-02-21T09:33:23;100815.62;;;6.12;100.00
76730;BME280;65653;53.106;18.046;2024-02-21T09:35:50;100813.27;;;6.18;100.00
76730;BME280;65653;53.106;18.046;2024-02-21T09:38:16;100814.31;;;6.27;100.00
76730;BME280;65653;53.106;18.046;2024-02-21T09:40:44;100811.14;;;6.35;100.00
76730;BME280;65653;53.106;18.046;2024-02-21T09:43:12;100805.84;;;6.36;100.00
76730;BME280;65653;53.106;18.046;2024-02-21T09:45:46;100804.77;;;6.37;100.00
76730;BME280;65653;53.106;18.046;2024-02-21T09:51:00;100800.35;;;6.33;100.00
76730;BME280;65653;53.106;18.046;2024-02-21T09:53:30;100797.56;;;6.30;100.00
76730;BME280;65653;53.106;18.046;2024-02-21T09:56:00;100799.54;;;6.26;100.00
76730;BME280;65653;53.106;18.046;2024-02-21T09:58:27;100791.33;;;6.26;100.00
76730;BME280;65653;53.106;18.046;2024-02-21T10:00:54;100791.98;;;6.27;100.00
76730;BME280;65653;53.106;18.046;2024-02-21T10:03:21;100794.88;;;6.27;100.00
76730;BME280;65653;53.106;18.046;2024-02-21T10:05:48;100797.40;;;6.24;100.00
76730;BME280;65653;53.106;18.046;2024-02-21T10:08:19;100800.55;;;6.22;100.00
76730;BME280;65653;53.106;18.046;2024-02-21T10:10:46;100801.85;;;6.23;100.00
76730;BME280;65653;53.106;18.046;2024-02-21T10:13:25;100803.08;;;6.27;100.00
76730;BME280;65653;53.106;18.046;2024-02-21T10:16:04;100803.03;;;6.31;100.00
76730;BME280;65653;53.106;18.046;2024-02-21T10:18:31;100809.08;;;6.32;100.00
76730;BME280;65653;53.106;18.046;2024-02-21T10:21:06;100805.48;;;6.32;100.00
76730;BME280;65653;53.106;18.046;2024-02-21T10:26:09;100795.62;;;6.28;100.00
76730;BME280;65653;53.106;18.046;2024-02-21T10:28:37;100792.67;;;6.27;100.00
76730;BME280;65653;53.106;18.046;2024-02-21T10:31:27;100790.80;;;6.28;100.00
76730;BME280;65653;53.106;18.046;2024-02-21T10:33:58;100788.59;;;6.30;100.00
76730;BME280;65653;53.106;18.046;2024-02-21T10:36:25;100780.33;;;6.35;100.00
76730;BME280;65653;53.106;18.046;2024-02-21T10:38:53;100784.84;;;6.36;100.00
76730;BME280;65653;53.106;18.046;2024-02-21T10:41:22;100778.64;;;6.38;100.00
76730;BME280;65653;53.106;18.046;2024-02-21T10:43:51;100779.27;;;6.42;100.00
76730;BME280;65653;53.106;18.046;2024-02-21T10:46:23;100773.98;;;6.47;100.00
76730;BME280;65653;53.106;18.046;2024-02-21T10:49:01;100764.08;;;6.52;100.00
76730;BME280;65653;53.106;18.046;2024-02-21T10:51:33;100764.29;;;6.56;100.00
76730;BME280;65653;53.106;18.046;2024-02-21T10:54:13;100757.56;;;6.65;100.00
76730;BME280;65653;53.106;18.046;2024-02-21T10:56:45;100756.67;;;6.63;100.00
76730;BME280;65653;53.106;18.046;2024-02-21T10:59:13;100752.64;;;6.65;100.00
76730;BME280;65653;53.106;18.046;2024-02-21T11:01:40;100746.41;;;6.79;100.00
76730;BME280;65653;53.106;18.046;2024-02-21T11:04:12;100743.18;;;6.84;100.00
76730;BME280;65653;53.106;18.046;2024-02-21T11:06:40;100740.34;;;6.80;100.00
76730;BME280;65653;53.106;18.046;2024-02-21T11:09:09;100735.77;;;6.72;100.00
76730;BME280;65653;53.106;18.046;2024-02-21T11:11:43;100724.58;;;6.77;100.00
76730;BME280;65653;53.106;18.046;2024-02-21T11:14:18;100725.80;;;6.79;100.00
76730;BME280;65653;53.106;18.046;2024-02-21T11:16:45;100720.63;;;6.75;100.00
76730;BME280;65653;53.106;18.046;2024-02-21T11:19:22;100719.98;;;6.74;100.00
76730;BME280;65653;53.106;18.046;2024-02-21T11:21:50;100708.61;;;6.75;100.00
76730;BME280;65653;53.106;18.046;2024-02-21T11:24:28;100705.48;;;6.82;100.00
76730;BME280;65653;53.106;18.046;2024-02-21T11:32:31;100682.85;;;7.09;100.00
76730;BME280;65653;53.106;18.046;2024-02-21T11:37:47;100670.71;;;7.13;100.00
76730;BME280;65653;53.106;18.046;2024-02-21T11:40:14;100670.48;;;7.18;100.00
76730;BME280;65653;53.106;18.046;2024-02-21T11:51:42;100664.60;;;7.10;100.00
76730;BME280;65653;53.106;18.046;2024-02-21T11:54:11;100661.94;;;7.08;100.00
76730;BME280;65653;53.106;18.046;2024-02-21T11:56:42;100664.23;;;7.04;100.00
76730;BME280;65653;53.106;18.046;2024-02-21T11:59:12;100667.09;;;7.00;100.00
76730;BME280;65653;53.106;18.046;2024-02-21T12:01:39;100668.77;;;6.97;100.00
76730;BME280;65653;53.106;18.046;2024-02-21T12:04:07;100672.11;;;6.96;100.00
76730;BME280;65653;53.106;18.046;2024-02-21T12:06:34;100678.53;;;6.93;100.00
76730;BME280;65653;53.106;18.046;2024-02-21T12:09:01;100672.82;;;6.92;100.00
76730;BME280;65653;53.106;18.046;2024-02-21T12:11:27;100664.80;;;6.92;100.00
76730;BME280;65653;53.106;18.046;2024-02-21T12:14:03;100665.00;;;6.88;100.00
76730;BME280;65653;53.106;18.046;2024-02-21T12:16:32;100659.67;;;6.89;100.00
76730;BME280;65653;53.106;18.046;2024-02-21T12:19:02;100647.61;;;6.90;100.00
76730;BME280;65653;53.106;18.046;2024-02-21T12:21:34;100649.73;;;6.92;100.00
76730;BME280;65653;53.106;18.046;2024-02-21T12:24:25;100647.02;;;6.94;100.00
76730;BME280;65653;53.106;18.046;2024-02-21T12:26:52;100643.87;;;6.93;100.00
76730;BME280;65653;53.106;18.046;2024-02-21T12:29:23;100641.36;;;6.93;100.00
76730;BME280;65653;53.106;18.046;2024-02-21T12:31:52;100647.19;;;6.92;100.00
76730;BME280;65653;53.106;18.046;2024-02-21T12:34:20;100647.77;;;6.91;100.00
76730;BME280;65653;53.106;18.046;2024-02-21T12:36:51;100650.90;;;6.93;100.00
76730;BME280;65653;53.106;18.046;2024-02-21T12:39:18;100651.84;;;6.96;100.00
76730;BME280;65653;53.106;18.046;2024-02-21T12:41:45;100642.09;;;6.96;100.00
76730;BME280;65653;53.106;18.046;2024-02-21T12:44:12;100648.00;;;6.94;100.00
76730;BME280;65653;53.106;18.046;2024-02-21T12:46:43;100651.04;;;6.92;100.00
76730;BME280;65653;53.106;18.046;2024-02-21T12:49:10;100642.33;;;6.92;100.00
76730;BME280;65653;53.106;18.046;2024-02-21T12:51:38;100644.61;;;6.92;100.00
76730;BME280;65653;53.106;18.046;2024-02-21T12:54:06;100642.73;;;6.91;100.00
76730;BME280;65653;53.106;18.046;2024-02-21T12:56:32;100648.11;;;6.89;100.00
76730;BME280;65653;53.106;18.046;2024-02-21T12:59:01;100646.38;;;6.86;100.00
76730;BME280;65653;53.106;18.046;2024-02-21T13:01:28;100638.66;;;6.86;100.00
76730;BME280;65653;53.106;18.046;2024-02-21T13:03:55;100645.68;;;6.86;100.00
76730;BME280;65653;53.106;18.046;2024-02-21T13:06:24;100645.31;;;6.84;100.00